Terminal Aerodrome Forecast
Issued by NWS

Home | Current Version | Previous Version | Text Only | Print | Product List | Glossary On
Versions: 1 2 3 4 5 6 7 8 9 10 11 12 13 14 15 16 17 18 19 20 21
280
FTUS41 KBGM 011732
TAFELM
TAF
KELM 011732Z 0118/0218 16010KT P6SM -SHRA OVC015
     FM020000 14005KT 5SM -DZ BR OVC012
     FM020800 VRB03KT 5SM -RA BR OVC008
     FM021500 26007KT 5SM -RA BR OVC015=

USA.gov is the U.S. government's official web portal to all federal, state and local government web resources and services.